Terminal Aerodrome Forecast
Issued by NWS St Louis, MO

Home | Current Version | Previous Version | Text Only | Print | Product List | Glossary On
Versions: 1 2 3 4 5 6 7 8 9 10 11 12 13 14 15 16 17 18 19 20 21 22 23 24
000
FTUS43 KLSX 222144 AAB
TAFSTL
TAF AMD
KSTL 222144Z 2222/2324 25010KT P6SM FEW060
     FM230300 25005KT P6SM VCTS SCT060CB
     FM230700 25005KT P6SM BKN120
     FM231200 32005KT P6SM SCT040=

USA.gov is the U.S. government's official web portal to all federal, state and local government web resources and services.